Time;durP1;ratioP1;P1;durP2;ratioP2;P2;SDS_P1;SDS_P2;PMS_P1;PMS_P2;Temp;Humidity;BMP_temperature;BMP_pressure;BME280_temperature;BME280_humidity;BME280_pressure;Samples;Min_cycle;Max_cycle;Signal;HPM_P1;HPM_P2
2023/04/14 00:00:18;;;;;;;14.27;5.55;;;6.80;99.90;;;5.71;100.00;96536.53;5091627;28;20394;-75
2023/04/14 00:02:44;;;;;;;13.25;5.10;;;6.80;99.90;;;5.71;100.00;96533.91;5093116;28;20477;-75
2023/04/14 00:05:12;;;;;;;18.05;5.13;;;6.80;99.90;;;5.65;100.00;96519.09;5093187;28;20404;-75
2023/04/14 00:07:37;;;;;;;14.85;4.97;;;6.70;99.90;;;5.72;100.00;96527.59;5093326;28;20398;-75
2023/04/14 00:10:04;;;;;;;11.27;4.38;;;6.70;99.90;;;5.68;100.00;96519.44;5092905;28;20401;-75
2023/04/14 00:12:30;;;;;;;15.75;5.03;;;6.80;99.90;;;5.61;100.00;96524.06;5092752;28;20517;-75
2023/04/14 00:14:56;;;;;;;12.45;4.40;;;6.70;99.90;;;5.61;100.00;96516.19;5093188;28;20481;-75
2023/04/14 00:17:22;;;;;;;17.80;5.13;;;6.70;99.90;;;5.62;100.00;96523.03;5093076;28;20964;-75
2023/04/14 00:19:48;;;;;;;16.73;4.80;;;6.70;99.90;;;5.64;100.00;96515.69;5092661;28;20390;-75
2023/04/14 00:22:15;;;;;;;18.27;4.65;;;6.70;99.90;;;5.61;100.00;96518.00;5092877;28;20953;-75
2023/04/14 00:24:44;;;;;;;17.27;4.95;;;6.70;99.90;;;5.57;100.00;96517.69;5091567;28;20434;-75
2023/04/14 00:27:10;;;;;;;14.70;4.88;;;6.70;99.90;;;5.59;100.00;96526.13;5093010;28;20401;-75
2023/04/14 00:29:40;;;;;;;13.83;4.80;;;6.60;99.90;;;5.50;100.00;96532.00;5092383;28;20882;-75
2023/04/14 00:32:06;;;;;;;18.80;4.93;;;6.60;99.90;;;5.40;100.00;96527.41;5092731;28;20463;-75
2023/04/14 00:34:32;;;;;;;20.88;4.85;;;6.50;99.90;;;5.39;100.00;96517.94;5092904;28;20406;-75
2023/04/14 00:36:58;;;;;;;16.27;4.72;;;6.50;99.90;;;5.37;100.00;96518.19;5092595;28;20444;-75
2023/04/14 00:39:25;;;;;;;19.90;4.80;;;6.50;99.90;;;5.41;100.00;96529.00;5092611;28;20892;-75
2023/04/14 00:41:51;;;;;;;15.10;4.50;;;6.50;99.90;;;5.33;100.00;96530.19;5091254;28;20398;-75
2023/04/14 00:44:17;;;;;;;14.52;4.38;;;6.40;99.90;;;5.33;100.00;96527.56;5092222;28;20748;-75
2023/04/14 00:46:44;;;;;;;14.97;4.40;;;6.40;99.90;;;5.31;100.00;96523.59;5092427;28;20489;-75
2023/04/14 00:49:10;;;;;;;17.38;4.78;;;6.40;99.90;;;5.26;100.00;96528.75;5091193;28;20406;-75
2023/04/14 00:51:36;;;;;;;16.23;4.30;;;6.40;99.90;;;5.21;100.00;96533.91;5092244;28;20410;-75
2023/04/14 00:54:04;;;;;;;17.70;4.30;;;6.30;99.90;;;5.28;100.00;96530.09;5091868;28;20602;-75
2023/04/14 00:56:32;;;;;;;14.88;4.38;;;6.30;99.90;;;5.25;100.00;96529.78;5090969;28;20413;-75
2023/04/14 00:59:00;;;;;;;15.90;4.32;;;6.40;99.90;;;5.23;100.00;96539.72;5092085;28;20459;-75
2023/04/14 01:01:27;;;;;;;15.07;3.90;;;6.40;99.90;;;5.20;100.00;96542.81;5090709;28;20864;-75
2023/04/14 01:03:54;;;;;;;20.40;4.90;;;6.30;99.90;;;5.13;100.00;96537.72;5091775;28;20398;-75
2023/04/14 01:06:20;;;;;;;19.42;4.03;;;6.20;99.90;;;5.12;100.00;96541.38;5092064;28;20405;-75
2023/04/14 01:08:47;;;;;;;14.70;4.10;;;6.30;99.90;;;5.15;100.00;96540.09;5091241;28;20422;-75
2023/04/14 01:11:23;;;;;;;20.25;4.53;;;6.30;99.90;;;5.12;100.00;96540.56;5091254;28;20824;-75
2023/04/14 01:14:01;;;;;;;11.73;4.10;;;6.20;99.90;;;5.10;100.00;96547.91;5091655;28;20512;-75
2023/04/14 01:16:31;;;;;;;18.65;4.60;;;6.20;99.90;;;5.07;100.00;96555.22;5091731;28;20418;-75
2023/04/14 01:19:15;;;;;;;16.65;3.75;;;6.20;99.90;;;5.04;100.00;96560.13;5091506;28;20394;-75
2023/04/14 01:21:48;;;;;;;16.03;4.33;;;6.20;99.90;;;5.02;100.00;96562.19;5091763;28;20831;-75
2023/04/14 01:24:35;;;;;;;15.27;4.07;;;6.20;99.90;;;4.98;100.00;96561.84;5091787;28;20514;-75
2023/04/14 01:27:15;;;;;;;25.40;4.77;;;6.10;99.90;;;4.96;100.00;96565.75;5091680;28;20401;-75
2023/04/14 01:30:08;;;;;;;8.63;3.77;;;6.10;99.90;;;4.92;100.00;96569.88;5091294;28;20867;-75
2023/04/14 01:32:41;;;;;;;10.07;3.90;;;6.10;99.90;;;4.86;100.00;96568.19;5091270;28;20425;-75
2023/04/14 01:35:12;;;;;;;10.73;4.00;;;6.00;99.90;;;4.80;100.00;96569.94;5091392;28;20401;-75
2023/04/14 01:37:47;;;;;;;22.13;4.90;;;6.00;99.90;;;4.73;100.00;96581.59;5091479;28;20518;-75
2023/04/14 01:40:17;;;;;;;16.70;4.15;;;5.90;99.90;;;4.65;100.00;96578.31;5091250;28;20477;-75
2023/04/14 01:42:47;;;;;;;21.48;4.75;;;5.80;99.90;;;4.58;100.00;96577.66;5091037;28;20788;-75
2023/04/14 01:45:21;;;;;;;28.48;5.80;;;5.80;99.90;;;4.51;100.00;96576.19;5091442;28;20544;-75
2023/04/14 01:47:50;;;;;;;15.68;4.32;;;5.60;99.90;;;4.40;100.00;96583.03;5091226;28;20427;-75
2023/04/14 01:50:17;;;;;;;24.67;5.57;;;5.60;99.90;;;4.34;100.00;96583.97;5090967;28;20435;-75
2023/04/14 01:52:50;;;;;;;16.00;4.45;;;5.50;99.90;;;4.28;100.00;96579.66;5091130;28;20429;-75
2023/04/14 01:55:18;;;;;;;25.25;5.10;;;5.50;99.90;;;4.21;100.00;96585.00;5091217;28;20462;-75
2023/04/14 01:57:47;;;;;;;11.57;4.55;;;5.40;99.90;;;4.13;100.00;96587.19;5089833;28;20537;-76
2023/04/14 02:00:15;;;;;;;17.38;4.82;;;5.40;99.90;;;4.04;100.00;96591.97;5090951;28;20401;-75
2023/04/14 02:02:44;;;;;;;18.13;4.83;;;5.30;99.90;;;4.00;100.00;96595.25;5090836;28;20824;-75
2023/04/14 02:05:12;;;;;;;16.88;4.53;;;5.20;99.90;;;3.96;100.00;96596.75;5090886;28;20406;-75
2023/04/14 02:07:40;;;;;;;19.95;5.18;;;5.20;99.90;;;3.91;100.00;96597.44;5090951;28;20410;-75
2023/04/14 02:10:09;;;;;;;17.83;5.20;;;5.10;99.90;;;3.87;100.00;96598.91;5090661;28;20496;-75
2023/04/14 02:12:38;;;;;;;27.38;5.97;;;5.10;99.90;;;3.83;100.00;96601.19;5092191;28;20544;-75
2023/04/14 02:15:12;;;;;;;13.97;5.03;;;5.00;99.90;;;3.76;100.00;96597.13;5093600;28;20934;-75
2023/04/14 02:17:39;;;;;;;22.00;5.80;;;5.00;99.90;;;3.71;100.00;96607.44;5093440;28;20401;-75
2023/04/14 02:20:08;;;;;;;20.02;5.32;;;4.90;99.90;;;3.63;100.00;96602.53;5090683;28;20444;-75
2023/04/14 02:22:35;;;;;;;16.88;4.88;;;4.90;99.90;;;3.59;100.00;96601.41;5089244;28;20394;-75
2023/04/14 02:25:01;;;;;;;14.63;4.50;;;4.90;99.90;;;3.57;100.00;96606.06;5089394;28;20410;-75
2023/04/14 02:27:32;;;;;;;15.50;4.95;;;4.80;99.90;;;3.54;100.00;96602.06;5090576;28;20481;-75
2023/04/14 02:30:04;;;;;;;20.85;5.50;;;4.80;99.90;;;3.48;100.00;96602.97;5089162;28;20425;-75
2023/04/14 02:32:35;;;;;;;13.00;4.20;;;4.70;99.90;;;3.43;100.00;96603.66;5089763;28;20778;-75
2023/04/14 02:35:07;;;;;;;11.70;4.18;;;4.70;99.90;;;3.38;100.00;96603.50;5090548;28;20439;-75
2023/04/14 02:37:38;;;;;;;27.30;5.57;;;4.70;99.90;;;3.40;100.00;96600.69;5090627;28;20470;-75
2023/04/14 02:40:13;;;;;;;27.10;5.72;;;4.70;99.90;;;3.37;100.00;96595.91;5090581;28;20434;-75
2023/04/14 02:42:43;;;;;;;24.70;5.55;;;4.60;99.90;;;3.31;100.00;96594.97;5089146;28;20405;-75
2023/04/14 02:45:17;;;;;;;19.85;5.43;;;4.50;99.90;;;3.19;100.00;96594.16;5090530;28;20532;-75
2023/04/14 02:47:49;;;;;;;14.57;4.95;;;4.50;99.90;;;3.11;100.00;96597.09;5090490;28;20511;-75
2023/04/14 02:50:18;;;;;;;23.20;5.05;;;4.40;99.90;;;3.13;100.00;96597.66;5089099;28;20446;-75
2023/04/14 02:52:50;;;;;;;14.98;5.00;;;4.40;99.90;;;3.08;100.00;96593.09;5090177;28;20421;-75
2023/04/14 02:55:18;;;;;;;26.77;6.00;;;4.30;99.90;;;3.08;100.00;96592.31;5090483;28;20394;-75
2023/04/14 02:57:47;;;;;;;21.88;5.20;;;4.30;99.90;;;2.97;100.00;96593.88;5090364;28;20416;-75
2023/04/14 03:00:14;;;;;;;19.45;4.80;;;4.30;99.90;;;2.90;100.00;96602.81;5088992;28;20446;-75
2023/04/14 03:02:45;;;;;;;12.45;4.72;;;4.20;99.90;;;2.88;100.00;96602.22;5088923;28;20442;-75
2023/04/14 03:05:13;;;;;;;16.60;5.50;;;4.20;99.90;;;2.90;100.00;96606.22;5090361;28;20386;-75
2023/04/14 03:07:41;;;;;;;19.85;5.45;;;4.20;99.90;;;2.86;100.00;96599.03;5090317;28;20938;-75
2023/04/14 03:10:10;;;;;;;11.63;4.60;;;4.10;99.90;;;2.81;100.00;96602.31;5090220;28;20505;-76
2023/04/14 03:12:38;;;;;;;29.65;5.68;;;4.10;99.90;;;2.87;100.00;96601.44;5090054;28;20466;-75
2023/04/14 03:15:07;;;;;;;14.73;5.10;;;4.10;99.90;;;2.82;100.00;96605.75;5088834;28;20459;-75
2023/04/14 03:17:34;;;;;;;13.40;4.78;;;4.10;99.90;;;2.75;100.00;96605.81;5090187;28;20398;-75
2023/04/14 03:20:00;;;;;;;20.80;5.80;;;4.10;99.90;;;2.76;100.00;96604.00;5090082;28;20418;-76
2023/04/14 03:22:27;;;;;;;17.85;5.00;;;4.00;99.90;;;2.77;100.00;96600.38;5090140;28;20798;-76
2023/04/14 03:24:57;;;;;;;12.70;4.40;;;4.00;99.90;;;2.67;100.00;96609.53;5090151;28;20756;-76
2023/04/14 03:27:26;;;;;;;15.50;4.60;;;4.00;99.90;;;2.67;100.00;96600.91;5090114;28;20475;-76
2023/04/14 03:29:59;;;;;;;15.68;5.50;;;3.90;99.90;;;2.64;100.00;96601.31;5089638;28;20499;-76
2023/04/14 03:32:33;;;;;;;28.63;5.90;;;3.90;99.90;;;2.65;100.00;96606.34;5090511;28;20950;-76
2023/04/14 03:35:01;;;;;;;13.68;4.68;;;4.00;99.90;;;2.59;100.00;96609.03;5093959;28;20386;-75
2023/04/14 03:37:30;;;;;;;25.33;5.78;;;3.90;99.90;;;2.57;100.00;96608.44;5093924;28;20402;-76
2023/04/14 03:39:59;;;;;;;20.85;5.60;;;3.90;99.90;;;2.58;100.00;96604.81;5092333;28;20402;-75
2023/04/14 03:42:28;;;;;;;16.52;4.88;;;3.80;99.90;;;2.53;100.00;96608.09;5093515;28;20515;-75
2023/04/14 03:44:57;;;;;;;20.73;5.55;;;3.80;99.90;;;2.54;100.00;96591.41;5092282;28;20488;-75
2023/04/14 03:47:25;;;;;;;24.23;5.72;;;3.80;99.90;;;2.46;100.00;96593.53;5094046;28;20401;-75
2023/04/14 03:49:55;;;;;;;13.68;4.80;;;3.80;99.90;;;2.46;100.00;96590.91;5092099;28;20471;-76
2023/04/14 03:52:22;;;;;;;16.92;5.90;;;3.70;99.90;;;2.48;100.00;96587.03;5093360;28;20412;-76
2023/04/14 03:54:52;;;;;;;22.42;5.60;;;3.70;99.90;;;2.44;100.00;96591.13;5093403;28;20448;-76
2023/04/14 03:57:21;;;;;;;20.75;6.03;;;3.70;99.90;;;2.38;100.00;96585.97;5093527;28;20420;-76
2023/04/14 03:59:49;;;;;;;23.23;6.72;;;3.60;99.90;;;2.32;100.00;96588.47;5092902;28;20407;-76
2023/04/14 04:02:17;;;;;;;17.95;5.50;;;3.60;99.90;;;2.29;100.00;96596.72;5092907;28;20456;-76
2023/04/14 04:04:44;;;;;;;17.45;5.82;;;3.60;99.90;;;2.27;100.00;96588.31;5090944;28;20406;-75
2023/04/14 04:07:12;;;;;;;23.65;5.78;;;3.60;99.90;;;2.28;100.00;96595.13;5093308;28;20382;-76
2023/04/14 04:09:41;;;;;;;18.55;5.55;;;3.50;99.90;;;2.27;100.00;96596.13;5091854;28;20404;-76
2023/04/14 04:12:10;;;;;;;21.95;6.32;;;3.50;99.90;;;2.31;100.00;96604.34;5092964;28;20414;-76
2023/04/14 04:14:39;;;;;;;25.55;6.20;;;3.60;99.90;;;2.34;100.00;96602.09;5092849;28;20802;-76
2023/04/14 04:17:07;;;;;;;25.33;6.55;;;3.60;99.90;;;2.42;100.00;96605.41;5092144;28;20401;-76
2023/04/14 04:19:35;;;;;;;28.90;7.23;;;3.70;99.90;;;2.62;100.00;96595.56;5090855;28;20875;-76
2023/04/14 04:22:03;;;;;;;26.52;6.28;;;3.80;99.90;;;2.70;100.00;96595.25;5093012;28;20826;-76
2023/04/14 04:24:36;;;;;;;27.60;6.45;;;3.90;99.90;;;2.84;100.00;96593.25;5092710;28;20398;-76
2023/04/14 04:27:03;;;;;;;28.15;6.07;;;4.00;99.90;;;2.93;100.00;96591.94;5092871;28;20394;-76
2023/04/14 04:29:29;;;;;;;20.30;6.45;;;4.10;99.90;;;3.00;100.00;96587.41;5091005;28;20779;-76
2023/04/14 04:31:55;;;;;;;28.30;6.35;;;4.20;99.90;;;3.14;100.00;96578.34;5092640;28;20410;-76
2023/04/14 04:34:24;;;;;;;23.42;5.57;;;4.30;99.90;;;3.16;100.00;96589.38;5092526;28;20762;-76
2023/04/14 04:36:51;;;;;;;24.17;5.40;;;4.40;99.90;;;3.33;100.00;96595.56;5092769;28;20435;-76
2023/04/14 04:39:17;;;;;;;25.15;5.97;;;4.50;99.90;;;3.42;100.00;96593.41;5092656;28;20429;-76
2023/04/14 04:41:44;;;;;;;18.38;4.80;;;4.60;99.90;;;3.54;100.00;96593.41;5091182;28;20412;-76
2023/04/14 04:44:10;;;;;;;21.17;5.03;;;4.70;99.90;;;3.67;100.00;96604.50;5092225;28;20432;-76
2023/04/14 04:46:48;;;;;;;26.85;4.70;;;4.80;99.90;;;3.65;100.00;96596.06;5092490;28;20394;-76
2023/04/14 04:49:14;;;;;;;24.75;4.47;;;4.80;99.90;;;3.59;100.00;96593.56;5092505;28;20395;-76
2023/04/14 04:51:42;;;;;;;16.63;4.10;;;4.80;99.90;;;3.57;100.00;96598.22;5092194;28;20412;-76
2023/04/14 04:54:08;;;;;;;20.48;3.97;;;4.80;99.90;;;3.52;100.00;96596.28;5092138;28;20447;-76
2023/04/14 04:56:34;;;;;;;19.30;4.15;;;4.70;99.90;;;3.52;100.00;96604.13;5092213;28;20434;-76
2023/04/14 04:59:00;;;;;;;17.87;3.90;;;4.70;99.90;;;3.50;100.00;96603.56;5091750;28;20918;-76
2023/04/14 05:01:26;;;;;;;11.13;3.60;;;4.70;99.90;;;3.48;100.00;96606.38;5090876;28;20451;-76
2023/04/14 05:03:52;;;;;;;20.02;4.97;;;4.70;99.90;;;3.55;100.00;96602.88;5091120;28;20397;-76
2023/04/14 05:06:18;;;;;;;15.38;4.45;;;4.70;99.90;;;3.56;100.00;96607.88;5091381;28;20406;-76
2023/04/14 05:08:45;;;;;;;28.95;4.63;;;4.70;99.90;;;3.56;100.00;96612.31;5091456;28;20485;-76
2023/04/14 05:11:11;;;;;;;17.00;3.65;;;4.70;99.90;;;3.57;100.00;96619.94;5107027;28;20424;-76
2023/04/14 05:13:37;;;;;;;19.98;4.00;;;4.70;99.90;;;3.67;100.00;96617.59;5106930;28;20429;-76
2023/04/14 05:16:04;;;;;;;18.10;4.10;;;4.80;99.90;;;3.70;100.00;96622.34;5092011;28;20402;-76
2023/04/14 05:18:30;;;;;;;13.70;4.38;;;4.80;99.90;;;3.68;100.00;96623.63;5091803;28;20409;-76
2023/04/14 05:21:00;;;;;;;14.13;3.60;;;4.80;99.90;;;3.65;100.00;96619.63;5091659;28;20394;-76
2023/04/14 05:23:26;;;;;;;11.32;3.33;;;4.80;99.90;;;3.68;100.00;96616.56;5091706;28;20438;-76
2023/04/14 05:25:56;;;;;;;20.25;4.15;;;4.80;99.90;;;3.68;100.00;96624.41;5091676;28;20397;-76
2023/04/14 05:28:22;;;;;;;15.00;3.97;;;4.80;99.90;;;3.72;100.00;96622.94;5091435;28;20546;-76
2023/04/14 05:30:49;;;;;;;12.80;3.53;;;4.90;99.90;;;3.75;100.00;96617.25;5091540;28;20454;-76
2023/04/14 05:33:15;;;;;;;14.93;3.53;;;4.90;99.90;;;3.79;100.00;96617.56;5091463;28;20441;-76
2023/04/14 05:35:41;;;;;;;15.82;3.47;;;5.00;99.90;;;3.79;100.00;96623.63;5091602;28;20903;-76
2023/04/14 05:38:07;;;;;;;14.63;3.38;;;4.90;99.90;;;3.89;100.00;96629.09;5091416;28;20989;-76
2023/04/14 05:40:33;;;;;;;12.43;3.33;;;5.00;99.90;;;3.94;100.00;96627.59;5091249;28;20398;-76
2023/04/14 05:43:00;;;;;;;14.70;3.42;;;5.10;99.90;;;3.96;100.00;96630.78;5091072;28;20948;-76
2023/04/14 05:45:26;;;;;;;8.80;2.95;;;5.10;99.90;;;4.01;100.00;96631.69;5107594;28;20405;-76
2023/04/14 05:47:52;;;;;;;18.13;3.90;;;5.20;99.90;;;4.15;100.00;96633.06;5091751;28;20883;-76
2023/04/14 05:50:18;;;;;;;14.88;3.55;;;5.30;99.90;;;4.25;100.00;96638.53;5091649;28;20903;-76
2023/04/14 05:52:44;;;;;;;14.43;3.20;;;5.30;99.90;;;4.28;100.00;96642.53;5091638;28;20406;-77
2023/04/14 05:55:11;;;;;;;9.55;3.10;;;5.40;99.90;;;4.33;100.00;96645.25;5091085;28;20406;-77
2023/04/14 05:57:37;;;;;;;8.57;3.00;;;5.50;99.90;;;4.38;100.00;96647.97;5091101;28;20444;-77
2023/04/14 06:00:06;;;;;;;11.30;3.20;;;5.50;99.90;;;4.40;100.00;96650.38;5090926;28;20398;-76
2023/04/14 06:02:32;;;;;;;12.75;3.28;;;5.50;99.90;;;4.55;100.00;96648.88;5087515;28;20790;-77
2023/04/14 06:05:01;;;;;;;16.05;3.20;;;5.60;99.90;;;4.56;100.00;96655.69;5082785;28;21360;-77
2023/04/14 06:07:27;;;;;;;9.27;2.92;;;5.70;99.90;;;4.67;100.00;96657.50;5088741;28;20429;-77
2023/04/14 06:09:53;;;;;;;8.48;2.67;;;5.70;99.90;;;4.70;100.00;96658.06;5089519;28;20965;-76
2023/04/14 06:12:19;;;;;;;11.18;3.20;;;5.80;99.90;;;4.80;100.00;96664.31;5090568;28;20505;-77
2023/04/14 06:14:45;;;;;;;10.77;2.67;;;5.90;99.90;;;4.88;100.00;96669.22;5091336;28;20394;-77
2023/04/14 06:17:13;;;;;;;8.95;2.85;;;5.90;99.90;;;4.88;100.00;96668.41;5090391;28;20698;-76
2023/04/14 06:19:39;;;;;;;6.10;2.38;;;6.00;99.90;;;4.92;100.00;96662.44;5091302;28;20406;-77
2023/04/14 06:22:04;;;;;;;5.97;2.60;;;6.00;99.90;;;4.96;100.00;96653.06;5091366;28;20536;-77
2023/04/14 06:24:33;;;;;;;11.57;2.90;;;6.00;99.90;;;5.01;100.00;96655.81;5091202;28;20801;-77
2023/04/14 06:26:59;;;;;;;10.60;3.58;;;6.10;99.90;;;4.99;100.00;96654.44;5090178;28;20398;-77
2023/04/14 06:29:26;;;;;;;11.18;3.70;;;6.10;99.90;;;5.03;100.00;96664.25;5102454;22;20436;-73
2023/04/14 06:31:53;;;;;;;19.35;5.47;;;6.10;99.90;;;5.03;100.00;96664.25;5049842;28;20409;-75
2023/04/14 06:34:20;;;;;;;11.23;4.18;;;6.10;99.90;;;5.03;100.00;96655.59;5048602;28;20740;-73
2023/04/14 06:36:46;;;;;;;13.55;4.88;;;6.10;99.90;;;5.03;100.00;96652.97;5050201;28;20401;-73
2023/04/14 06:39:13;;;;;;;12.73;4.50;;;6.10;99.90;;;5.04;100.00;96657.97;5050059;28;20960;-72
2023/04/14 06:41:39;;;;;;;17.63;4.97;;;6.10;99.90;;;5.06;100.00;96657.72;5050162;28;20397;-72
2023/04/14 06:44:05;;;;;;;14.45;4.90;;;6.10;99.90;;;5.07;100.00;96656.69;5050178;28;20559;-73
2023/04/14 06:46:34;;;;;;;11.80;4.10;;;6.10;99.90;;;5.11;100.00;96659.66;5050410;28;20534;-75
2023/04/14 06:49:00;;;;;;;12.93;4.38;;;6.20;99.90;;;5.14;100.00;96649.50;5043265;28;20408;-74
2023/04/14 06:51:27;;;;;;;13.60;3.63;;;6.20;99.90;;;5.20;100.00;96653.78;5030191;28;20491;-73
2023/04/14 06:53:53;;;;;;;10.35;3.38;;;6.20;99.90;;;5.29;100.00;96651.59;5029699;28;20487;-73
2023/04/14 06:56:19;;;;;;;8.18;2.90;;;6.30;99.90;;;5.38;100.00;96647.56;5029867;28;20836;-75
2023/04/14 06:58:45;;;;;;;13.98;2.85;;;6.40;99.90;;;5.44;100.00;96647.41;5030330;28;20410;-75
2023/04/14 07:01:11;;;;;;;11.80;2.72;;;6.50;99.90;;;5.53;100.00;96647.03;5030007;28;20399;-75
2023/04/14 07:03:37;;;;;;;8.77;2.83;;;6.50;99.90;;;5.59;100.00;96646.88;5030057;28;20753;-74
2023/04/14 07:06:05;;;;;;;11.75;2.90;;;6.60;99.90;;;5.62;100.00;96643.00;5030210;28;20417;-75
2023/04/14 07:08:34;;;;;;;10.45;2.60;;;6.70;99.90;;;5.70;100.00;96643.41;5034244;28;20399;-75
2023/04/14 07:11:00;;;;;;;7.18;2.88;;;6.70;99.90;;;5.74;100.00;96641.06;5034272;28;20399;-75
2023/04/14 07:13:26;;;;;;;12.20;2.67;;;6.80;99.90;;;5.85;100.00;96634.97;5034280;28;20403;-75
2023/04/14 07:15:53;;;;;;;7.07;2.42;;;6.90;99.90;;;5.90;100.00;96629.00;5034232;28;20873;-75
2023/04/14 07:18:19;;;;;;;11.80;3.63;;;6.90;99.90;;;5.98;100.00;96633.88;5049393;28;20852;-73
2023/04/14 07:20:45;;;;;;;9.27;2.40;;;6.90;99.90;;;6.09;100.00;96628.50;5033696;28;20469;-75
2023/04/14 07:23:11;;;;;;;7.90;2.28;;;7.10;99.90;;;6.16;100.00;96629.13;5034027;28;20804;-75
2023/04/14 07:25:38;;;;;;;8.27;2.27;;;7.20;99.90;;;6.19;100.00;96625.25;5034099;28;20870;-75
2023/04/14 07:28:05;;;;;;;9.45;2.40;;;7.20;99.90;;;6.31;100.00;96615.44;5034124;28;20407;-74
2023/04/14 07:30:31;;;;;;;8.48;2.42;;;7.30;99.90;;;6.34;100.00;96622.03;5033832;28;20441;-75
2023/04/14 07:32:57;;;;;;;7.88;2.72;;;7.30;99.90;;;6.41;100.00;96620.00;5033589;28;20421;-75
2023/04/14 07:35:25;;;;;;;13.30;2.60;;;7.40;99.90;;;6.44;100.00;96612.44;5033984;28;20770;-75
2023/04/14 07:37:51;;;;;;;8.45;2.50;;;7.40;99.90;;;6.54;100.00;96615.19;5033871;28;20429;-75
2023/04/14 07:40:17;;;;;;;9.20;2.65;;;7.50;99.90;;;6.68;100.00;96615.66;5033776;28;20414;-75
2023/04/14 07:42:46;;;;;;;9.48;2.22;;;7.60;99.90;;;6.68;100.00;96620.91;5033741;28;20406;-75
2023/04/14 07:45:12;;;;;;;8.57;2.55;;;7.70;99.90;;;6.79;100.00;96622.59;5033877;28;20464;-75
2023/04/14 07:47:38;;;;;;;6.15;2.22;;;7.70;99.90;;;6.86;100.00;96617.94;5033612;28;20884;-74
2023/04/14 07:50:05;;;;;;;8.88;2.70;;;7.80;99.90;;;6.91;100.00;96617.22;5033464;28;20486;-73
2023/04/14 07:52:40;;;;;;;16.98;3.13;;;7.90;99.90;;;6.65;100.00;96618.75;5033613;28;20780;-73
2023/04/14 07:55:06;;;;;;;7.82;2.08;;;7.80;99.90;;;6.85;100.00;96618.19;5033555;28;20418;-75
2023/04/14 07:57:33;;;;;;;8.73;2.40;;;7.80;99.90;;;7.04;100.00;96630.00;5033518;28;20485;-75
2023/04/14 08:00:00;;;;;;;8.65;2.50;;;8.00;99.90;;;7.13;100.00;96627.72;5033237;28;20510;-74
2023/04/14 08:02:26;;;;;;;11.43;2.53;;;8.10;99.90;;;7.16;100.00;96627.22;5033341;28;20395;-74
2023/04/14 08:04:52;;;;;;;12.77;2.70;;;8.10;99.90;;;7.11;100.00;96633.22;5033276;28;20444;-75
2023/04/14 08:07:18;;;;;;;6.82;2.50;;;8.10;99.90;;;7.30;100.00;96629.22;5035519;28;20405;-75
2023/04/14 08:09:44;;;;;;;9.82;2.03;;;8.30;99.90;;;7.26;100.00;96635.22;5033049;28;21100;-74
2023/04/14 08:12:10;;;;;;;7.85;2.47;;;8.20;99.90;;;7.30;100.00;96637.09;5033167;28;20502;-75
2023/04/14 08:14:36;;;;;;;8.48;2.15;;;8.30;99.90;;;7.31;100.00;96635.25;5033251;28;20465;-76
2023/04/14 08:17:03;;;;;;;5.70;2.45;;;8.30;99.90;;;7.27;100.00;96634.97;5033062;28;20489;-76
2023/04/14 08:19:30;;;;;;;5.22;2.10;;;8.20;99.90;;;7.38;100.00;96634.03;5032256;28;20811;-75
2023/04/14 08:21:56;;;;;;;11.60;2.60;;;8.30;99.90;;;7.44;100.00;96631.47;5033060;28;20885;-76
2023/04/14 08:24:22;;;;;;;9.35;2.50;;;8.40;99.90;;;7.33;100.00;96634.00;5032783;28;20418;-75
2023/04/14 08:26:48;;;;;;;7.53;2.33;;;8.30;99.90;;;7.38;100.00;96634.03;5033108;28;20442;-74
2023/04/14 08:29:14;;;;;;;7.68;2.03;;;8.30;99.90;;;7.54;100.00;96636.81;5033040;28;20764;-75
2023/04/14 08:31:40;;;;;;;12.23;2.50;;;8.40;99.90;;;7.51;100.00;96643.38;5032714;28;21007;-76
2023/04/14 08:34:07;;;;;;;8.95;2.58;;;8.50;99.90;;;7.61;100.00;96640.81;5032644;28;20407;-76
2023/04/14 08:36:33;;;;;;;11.55;2.65;;;8.50;99.90;;;7.84;100.00;96634.44;5048083;28;20920;-75
2023/04/14 08:39:00;;;;;;;9.50;2.70;;;8.70;99.90;;;7.86;100.00;96644.72;5050369;28;20447;-77
2023/04/14 08:41:27;;;;;;;10.50;2.63;;;8.80;99.90;;;8.01;100.00;96640.38;5045208;28;20476;-76
2023/04/14 08:43:53;;;;;;;6.85;2.40;;;8.90;99.90;;;8.05;100.00;96635.38;5052310;28;20411;-76
2023/04/14 08:46:20;;;;;;;8.98;2.50;;;9.00;99.90;;;8.13;100.00;96632.25;5052599;28;20409;-74
2023/04/14 08:48:48;;;;;;;10.85;2.50;;;9.00;99.90;;;8.20;100.00;96624.94;5052431;28;20409;-75
2023/04/14 08:51:27;;;;;;;3.40;1.88;;;9.10;99.90;;;8.29;100.00;96633.16;5052812;28;20788;-77
2023/04/14 08:53:55;;;;;;;9.30;2.30;;;9.20;99.90;;;8.26;100.00;96631.84;5052342;28;20413;-78
2023/04/14 08:56:23;;;;;;;9.68;2.70;;;9.20;99.90;;;8.28;100.00;96626.28;5055091;28;20425;-77
2023/04/14 08:58:50;;;;;;;10.90;2.70;;;9.20;99.90;;;8.43;100.00;96619.28;5057223;28;20405;-76
2023/04/14 09:01:16;;;;;;;7.50;2.30;;;9.30;99.90;;;8.47;100.00;96630.94;5055580;28;20409;-77
2023/04/14 09:03:43;;;;;;;8.73;2.42;;;9.40;99.90;;;8.49;100.00;96633.31;5055831;28;20402;-77
2023/04/14 09:06:09;;;;;;;9.55;2.35;;;9.40;99.90;;;8.53;100.00;96629.13;5056202;28;20413;-78
2023/04/14 09:08:37;;;;;;;7.53;2.30;;;9.40;99.90;;;8.32;100.00;96635.31;5053734;28;20894;-78
2023/04/14 09:11:03;;;;;;;11.95;2.80;;;9.30;99.90;;;8.59;100.00;96630.72;5054583;28;20421;-78
2023/04/14 09:13:30;;;;;;;7.13;2.70;;;9.50;99.90;;;8.64;100.00;96628.13;5054027;28;20405;-77
2023/04/14 09:15:58;;;;;;;11.57;2.63;;;9.60;99.90;;;8.71;100.00;96631.31;5053156;28;20404;-77
2023/04/14 09:18:25;;;;;;;7.10;2.30;;;9.60;99.90;;;8.74;100.00;96630.78;5052942;28;20429;-77
2023/04/14 09:20:51;;;;;;;7.18;2.30;;;9.60;99.90;;;8.72;100.00;96634.75;5052570;28;20405;-76
2023/04/14 09:23:20;;;;;;;7.70;2.38;;;9.60;99.90;;;8.66;100.00;96630.50;5051275;28;20397;-76
2023/04/14 09:25:47;;;;;;;10.07;2.22;;;9.60;99.90;;;8.59;100.00;96628.09;5051609;28;20751;-74
2023/04/14 09:28:14;;;;;;;8.35;2.60;;;9.50;99.90;;;8.68;100.00;96631.03;5051446;28;20409;-74
2023/04/14 09:30:41;;;;;;;5.57;2.60;;;9.50;99.90;;;8.84;100.00;96624.78;5050285;28;20505;-74
2023/04/14 09:33:18;;;;;;;6.05;2.28;;;9.70;99.90;;;8.92;100.00;96626.91;5051241;28;20989;-74
2023/04/14 09:35:47;;;;;;;9.48;2.63;;;9.80;99.90;;;9.05;100.00;96623.00;5051415;28;20398;-74
2023/04/14 09:38:15;;;;;;;10.05;2.40;;;9.90;99.90;;;9.30;100.00;96621.22;5051351;28;20397;-74
2023/04/14 09:40:46;;;;;;;9.52;2.60;;;10.10;99.90;;;9.49;100.00;96634.72;5051170;28;20404;-74
2023/04/14 09:43:26;;;;;;;8.30;2.72;;;10.30;99.90;;;9.83;100.00;96623.66;5051325;28;20771;-74
2023/04/14 09:45:54;;;;;;;7.95;2.40;;;10.60;99.90;;;10.04;100.00;96626.03;5051047;28;20492;-74
2023/04/14 09:48:20;;;;;;;8.97;2.93;;;10.80;99.90;;;9.93;100.00;96623.63;5050771;28;20432;-74
2023/04/14 12:31:30;;;;;;;5.55;1.77;;;19.90;99.90;;;20.12;100.00;96453.38;5061314;23;20445;-76
2023/04/14 12:34:02;;;;;;;5.55;1.60;;;20.40;99.20;;;20.95;100.00;96447.50;5015504;28;20764;-76
2023/04/14 12:36:28;;;;;;;5.32;1.77;;;21.00;97.60;;;21.49;100.00;96443.31;5018385;28;20419;-77
2023/04/14 12:38:54;;;;;;;4.27;1.40;;;21.70;95.40;;;21.92;100.00;96436.31;5054242;28;20412;-76
2023/04/14 12:41:23;;;;;;;6.15;1.50;;;22.00;93.50;;;22.09;92.55;96429.84;5051377;28;20755;-77
2023/04/14 12:43:50;;;;;;;4.75;1.80;;;22.30;87.50;;;21.76;97.54;96430.13;5049456;28;20998;-76
2023/04/14 12:46:25;;;;;;;3.03;1.20;;;22.10;89.50;;;20.92;100.00;96427.44;5034362;28;20407;-78
2023/04/14 12:48:52;;;;;;;3.40;1.40;;;21.50;92.70;;;20.13;100.00;96414.63;5035528;28;20407;-79
2023/04/14 12:51:19;;;;;;;3.83;1.27;;;20.80;95.40;;;19.42;100.00;96421.06;5034608;28;20418;-76
2023/04/14 12:53:48;;;;;;;4.00;1.42;;;20.10;98.40;;;18.74;100.00;96417.88;5032638;28;20407;-76
2023/04/14 12:56:18;;;;;;;3.03;1.27;;;19.50;99.90;;;18.10;100.00;96411.94;5032317;28;20447;-76
2023/04/14 12:58:45;;;;;;;3.20;1.25;;;18.90;99.90;;;17.54;100.00;96410.38;5031643;28;20757;-77
2023/04/14 13:01:12;;;;;;;3.33;1.50;;;18.40;99.90;;;17.11;100.00;96405.13;5033818;28;20414;-75
2023/04/14 13:03:41;;;;;;;4.68;1.50;;;17.90;99.90;;;16.74;100.00;96403.88;5022774;28;20796;-75